createdAt,value
2023-03-04T00:01:31.642Z,-0.74
2023-03-04T00:03:59.722Z,-0.74
2023-03-04T00:06:28.091Z,-0.73
2023-03-04T00:08:56.343Z,-0.74
2023-03-04T00:11:25.009Z,-0.73
2023-03-04T00:13:53.276Z,-0.71
2023-03-04T00:16:21.418Z,-0.72
2023-03-04T00:18:49.295Z,-0.74
2023-03-04T00:21:17.231Z,-0.76
2023-03-04T00:23:45.331Z,-0.76
2023-03-04T00:26:13.708Z,-0.72
2023-03-04T00:28:43.438Z,-0.71
2023-03-04T00:31:12.264Z,-0.74
2023-03-04T00:33:40.579Z,-0.71
2023-03-04T00:36:08.695Z,-0.71
2023-03-04T00:38:36.975Z,-0.70
2023-03-04T00:41:05.208Z,-0.72
2023-03-04T00:43:33.237Z,-0.74
2023-03-04T00:46:01.330Z,-0.71
2023-03-04T00:48:31.170Z,-0.70
2023-03-04T00:50:59.219Z,-0.73
2023-03-04T00:53:27.366Z,-0.72
2023-03-04T00:55:55.388Z,-0.70
2023-03-04T00:58:23.289Z,-0.72
2023-03-04T01:00:51.385Z,-0.74
2023-03-04T01:03:19.806Z,-0.74
2023-03-04T01:05:47.788Z,-0.73
2023-03-04T01:08:15.814Z,-0.71
2023-03-04T01:10:44.892Z,-0.71
2023-03-04T01:13:13.494Z,-0.74
2023-03-04T01:15:41.562Z,-0.76
2023-03-04T01:18:10.015Z,-0.76
2023-03-04T01:20:38.227Z,-0.72
2023-03-04T01:23:06.265Z,-0.76
2023-03-04T01:25:34.464Z,-0.74
2023-03-04T01:28:02.589Z,-0.74
2023-03-04T01:30:30.736Z,-0.75
2023-03-04T01:32:58.829Z,-0.77
2023-03-04T01:35:26.851Z,-0.76
2023-03-04T01:37:54.947Z,-0.78
2023-03-04T01:40:22.939Z,-0.79
2023-03-04T01:42:51.116Z,-0.77
2023-03-04T01:45:20.347Z,-0.77
2023-03-04T01:47:50.048Z,-0.81
2023-03-04T01:50:23.117Z,-0.82
2023-03-04T01:52:51.296Z,-0.79
2023-03-04T01:55:21.729Z,-0.79
2023-03-04T01:57:51.845Z,-0.81
2023-03-04T02:00:27.954Z,-0.81
2023-03-04T02:03:24.776Z,-0.77
2023-03-04T02:05:53.925Z,-0.77
2023-03-04T02:08:24.879Z,-0.78
2023-03-04T02:10:54.265Z,-0.78
2023-03-04T02:13:23.407Z,-0.80
2023-03-04T02:15:53.130Z,-0.78
2023-03-04T02:18:23.990Z,-0.76
2023-03-04T02:21:19.857Z,-0.73
2023-03-04T02:24:06.514Z,-0.71
2023-03-04T02:26:39.961Z,-0.71
2023-03-04T02:29:10.823Z,-0.69
2023-03-04T02:31:43.287Z,-0.67
2023-03-04T02:34:17.441Z,-0.66
2023-03-04T02:36:46.907Z,-0.66
2023-03-04T02:39:22.137Z,-0.63
2023-03-04T02:41:54.407Z,-0.61
2023-03-04T02:44:29.112Z,-0.60
2023-03-04T02:46:59.229Z,-0.56
2023-03-04T02:49:29.559Z,-0.53
2023-03-04T02:52:01.751Z,-0.53
2023-03-04T02:54:30.073Z,-0.54
2023-03-04T02:57:01.518Z,-0.52
2023-03-04T02:59:30.459Z,-0.53
2023-03-04T03:01:58.990Z,-0.47
2023-03-04T03:04:27.825Z,-0.46
2023-03-04T03:06:56.174Z,-0.45
2023-03-04T03:09:24.225Z,-0.43
2023-03-04T03:11:52.268Z,-0.40
2023-03-04T03:14:21.104Z,-0.40
2023-03-04T03:16:49.150Z,-0.39
2023-03-04T03:19:17.128Z,-0.35
2023-03-04T03:21:45.079Z,-0.29
2023-03-04T03:24:13.214Z,-0.26
2023-03-04T03:26:45.559Z,-0.26
2023-03-04T03:29:13.730Z,-0.25
2023-03-04T03:31:41.822Z,-0.24
2023-03-04T03:34:09.987Z,-0.21
2023-03-04T03:36:38.168Z,-0.21
2023-03-04T03:39:06.337Z,-0.19
2023-03-04T03:41:34.657Z,-0.17
2023-03-04T03:44:02.824Z,-0.13
2023-03-04T03:46:30.884Z,-0.10
2023-03-04T03:48:58.916Z,-0.10
2023-03-04T03:51:26.917Z,-0.07
2023-03-04T03:53:54.810Z,-0.06
2023-03-04T03:56:22.700Z,-0.05
2023-03-04T03:58:50.866Z,-0.03
2023-03-04T04:05:24.947Z,0.01
2023-03-04T04:07:54.175Z,0.03
2023-03-04T04:10:22.179Z,0.02
2023-03-04T04:12:50.226Z,0.03
2023-03-04T04:15:19.325Z,0.04
2023-03-04T04:17:47.288Z,0.05
2023-03-04T04:20:15.482Z,0.08
2023-03-04T04:22:43.962Z,0.08
2023-03-04T04:25:11.930Z,0.09
2023-03-04T04:27:39.965Z,0.08
2023-03-04T04:34:34.821Z,0.13
2023-03-04T04:37:02.819Z,0.10
2023-03-04T04:39:30.767Z,0.10
2023-03-04T04:41:58.662Z,0.11
2023-03-04T04:44:27.415Z,0.14
2023-03-04T04:46:55.548Z,0.14
2023-03-04T04:49:23.542Z,0.15
2023-03-04T04:51:51.504Z,0.14
2023-03-04T04:54:19.536Z,0.15
2023-03-04T04:56:47.512Z,0.18
2023-03-04T04:59:15.954Z,0.17
2023-03-04T05:01:44.019Z,0.17
2023-03-04T05:04:11.941Z,0.17
2023-03-04T05:06:40.009Z,0.19
2023-03-04T05:09:07.940Z,0.18
2023-03-04T05:11:36.007Z,0.20
2023-03-04T05:14:03.978Z,0.19
2023-03-04T05:16:32.297Z,0.21
2023-03-04T05:19:00.877Z,0.23
2023-03-04T05:21:28.947Z,0.24
2023-03-04T05:23:56.913Z,0.23
2023-03-04T05:26:24.791Z,0.23
2023-03-04T05:28:53.399Z,0.23
2023-03-04T05:31:21.518Z,0.26
2023-03-04T05:33:49.478Z,0.29
2023-03-04T05:36:17.487Z,0.29
2023-03-04T05:38:45.540Z,0.31
2023-03-04T05:41:13.551Z,0.31
2023-03-04T05:43:42.952Z,0.31
2023-03-04T05:46:15.810Z,0.31
2023-03-04T05:48:44.869Z,0.34
2023-03-04T05:51:12.735Z,0.33
2023-03-04T05:53:41.596Z,0.34
2023-03-04T05:56:11.611Z,0.35
2023-03-04T05:58:40.933Z,0.34
2023-03-04T06:01:09.918Z,0.38
2023-03-04T06:03:38.086Z,0.40
2023-03-04T06:06:06.244Z,0.40
2023-03-04T06:08:35.796Z,0.41
2023-03-04T06:11:05.692Z,0.41
2023-03-04T06:13:34.845Z,0.45
2023-03-04T06:16:02.836Z,0.44
2023-03-04T06:18:30.937Z,0.43
2023-03-04T06:21:00.791Z,0.46
2023-03-04T06:23:30.151Z,0.46
2023-03-04T06:26:00.115Z,0.48
2023-03-04T06:28:28.885Z,0.47
2023-03-04T06:30:57.802Z,0.48
2023-03-04T06:33:26.534Z,0.47
2023-03-04T06:35:56.404Z,0.48
2023-03-04T06:38:25.972Z,0.48
2023-03-04T06:40:57.209Z,0.51
2023-03-04T06:43:25.542Z,0.51
2023-03-04T06:45:53.855Z,0.53
2023-03-04T06:48:21.898Z,0.55
2023-03-04T06:50:49.907Z,0.56
2023-03-04T06:53:17.824Z,0.54
2023-03-04T06:55:46.479Z,0.56
2023-03-04T06:58:14.770Z,0.56
2023-03-04T07:00:42.755Z,0.56
2023-03-04T07:03:13.599Z,0.56
2023-03-04T07:05:42.948Z,0.56
2023-03-04T07:08:10.831Z,0.59
2023-03-04T07:10:39.296Z,0.59
2023-03-04T07:13:07.397Z,0.60
2023-03-04T07:15:36.291Z,0.61
2023-03-04T07:18:04.312Z,0.61
2023-03-04T07:20:32.605Z,0.63
2023-03-04T07:23:00.526Z,0.66
2023-03-04T07:25:28.496Z,0.66
2023-03-04T07:27:56.457Z,0.68
2023-03-04T07:30:24.291Z,0.70
2023-03-04T07:32:52.427Z,0.69
2023-03-04T07:35:20.491Z,0.71
2023-03-04T07:37:48.553Z,0.75
2023-03-04T07:40:16.978Z,0.81
2023-03-04T07:42:49.905Z,0.81
2023-03-04T07:45:18.380Z,0.83
2023-03-04T07:47:46.581Z,0.83
2023-03-04T07:50:17.547Z,0.84
2023-03-04T07:52:48.189Z,0.87
2023-03-04T07:55:17.232Z,0.88
2023-03-04T07:57:48.313Z,0.88
2023-03-04T08:00:17.705Z,0.87
2023-03-04T08:02:45.683Z,0.89
2023-03-04T08:05:14.205Z,0.88
2023-03-04T08:07:42.232Z,0.91
2023-03-04T08:10:10.969Z,0.92
2023-03-04T08:12:40.653Z,0.91
2023-03-04T08:15:09.080Z,0.90
2023-03-04T08:17:38.228Z,0.92
2023-03-04T08:20:06.776Z,0.93
2023-03-04T08:22:34.927Z,0.94
2023-03-04T08:25:03.996Z,0.95
2023-03-04T08:27:31.917Z,0.99
2023-03-04T08:29:59.898Z,0.98
2023-03-04T08:32:28.706Z,1.02
2023-03-04T08:34:57.066Z,1.04
2023-03-04T08:37:25.128Z,1.04
2023-03-04T08:39:53.098Z,1.06
2023-03-04T08:42:21.138Z,1.11
2023-03-04T08:44:49.329Z,1.10
2023-03-04T08:47:17.306Z,1.15
2023-03-04T08:49:45.231Z,1.13
2023-03-04T08:52:13.310Z,1.16
2023-03-04T08:54:41.443Z,1.13
2023-03-04T08:57:09.363Z,1.17
2023-03-04T08:59:38.577Z,1.18
2023-03-04T09:02:07.113Z,1.22
2023-03-04T09:04:35.472Z,1.21
2023-03-04T09:07:04.264Z,1.22
2023-03-04T09:09:32.173Z,1.24
2023-03-04T09:12:00.126Z,1.28
2023-03-04T09:14:28.813Z,1.27
2023-03-04T09:16:56.789Z,1.35
2023-03-04T09:19:24.790Z,1.37
2023-03-04T09:21:52.681Z,1.39
2023-03-04T09:24:20.467Z,1.37
2023-03-04T09:26:52.286Z,1.35
2023-03-04T09:29:21.147Z,1.37
2023-03-04T09:31:49.052Z,1.39
2023-03-04T09:34:16.962Z,1.44
2023-03-04T09:36:44.987Z,1.51
2023-03-04T09:39:12.806Z,1.51
2023-03-04T09:41:44.735Z,1.55
2023-03-04T09:44:43.585Z,1.60
2023-03-04T09:47:14.859Z,1.63
2023-03-04T09:49:45.805Z,1.67
2023-03-04T09:52:58.442Z,1.65
2023-03-04T09:55:33.983Z,1.80
2023-03-04T09:58:17.151Z,1.91
2023-03-04T10:00:52.150Z,1.99
2023-03-04T10:03:24.689Z,2.10
2023-03-04T10:06:06.208Z,2.23
2023-03-04T10:08:42.545Z,2.37
2023-03-04T10:11:24.836Z,2.44
2023-03-04T10:14:11.688Z,2.48
2023-03-04T10:16:51.890Z,2.52
2023-03-04T10:19:46.968Z,2.49
2023-03-04T10:22:21.013Z,2.55
2023-03-04T10:24:49.405Z,2.59
2023-03-04T10:27:19.808Z,2.60
2023-03-04T10:29:49.108Z,2.56
2023-03-04T10:32:19.672Z,2.56
2023-03-04T10:34:47.782Z,2.55
2023-03-04T10:37:15.795Z,2.57
2023-03-04T10:39:45.996Z,2.57
2023-03-04T10:42:13.879Z,2.54
2023-03-04T10:44:44.905Z,2.59
2023-03-04T10:47:14.283Z,2.61
2023-03-04T10:49:54.166Z,2.63
2023-03-04T10:52:32.504Z,2.69
2023-03-04T10:55:29.915Z,2.77
2023-03-04T10:58:04.982Z,2.90
2023-03-04T11:04:36.303Z,2.99
2023-03-04T11:07:10.689Z,3.02
2023-03-04T11:09:40.265Z,2.99
2023-03-04T11:12:17.218Z,2.94
2023-03-04T11:14:50.951Z,2.95
2023-03-04T11:17:25.221Z,3.06
2023-03-04T11:20:21.011Z,3.10
2023-03-04T11:22:51.063Z,3.03
2023-03-04T11:25:27.745Z,3.05
2023-03-04T11:28:00.200Z,3.07
2023-03-04T11:30:42.893Z,3.06
2023-03-04T11:33:17.119Z,3.01
2023-03-04T11:36:04.125Z,2.97
2023-03-04T11:38:39.320Z,3.02
2023-03-04T11:41:19.325Z,3.04
2023-03-04T11:43:47.407Z,3.03
2023-03-04T11:46:46.151Z,3.00
2023-03-04T11:49:32.910Z,2.89
2023-03-04T11:52:29.569Z,2.80
2023-03-04T11:55:28.318Z,2.79
2023-03-04T11:58:04.066Z,2.74
2023-03-04T12:00:38.228Z,2.72
2023-03-04T12:03:39.673Z,2.68
2023-03-04T12:06:30.194Z,2.63
2023-03-04T12:09:18.168Z,2.57
2023-03-04T12:12:25.189Z,2.55
2023-03-04T12:15:15.089Z,2.54
2023-03-04T12:17:57.879Z,2.59
2023-03-04T12:20:42.146Z,2.63
2023-03-04T12:23:28.203Z,2.69
2023-03-04T12:26:06.315Z,2.68
2023-03-04T12:28:54.970Z,2.75
2023-03-04T12:31:42.521Z,2.69
2023-03-04T12:34:22.479Z,2.62
2023-03-04T12:37:13.185Z,2.60
2023-03-04T12:39:58.813Z,2.54
2023-03-04T12:43:01.036Z,2.54
2023-03-04T12:45:28.916Z,2.53
2023-03-04T12:48:24.161Z,2.52
2023-03-04T12:51:09.712Z,2.45
2023-03-04T12:54:06.536Z,2.37
2023-03-04T12:56:44.857Z,2.25
2023-03-04T12:59:18.773Z,2.08
2023-03-04T13:01:56.430Z,1.91
2023-03-04T13:04:29.637Z,1.85
2023-03-04T13:06:57.650Z,1.86
2023-03-04T13:09:31.997Z,1.91
2023-03-04T13:12:16.002Z,1.89
2023-03-04T13:15:08.824Z,1.97
2023-03-04T13:17:44.071Z,1.95
2023-03-04T13:20:23.324Z,1.91
2023-03-04T13:22:59.716Z,1.86
2023-03-04T13:25:27.733Z,1.77
2023-03-04T13:28:11.043Z,1.66
2023-03-04T13:30:39.071Z,1.60
2023-03-04T13:33:16.095Z,1.62
2023-03-04T13:35:47.055Z,1.68
2023-03-04T13:38:21.294Z,1.77
2023-03-04T13:41:07.508Z,1.84
2023-03-04T13:43:46.554Z,1.87
2023-03-04T13:46:20.816Z,1.93
2023-03-04T13:48:52.004Z,1.95
2023-03-04T13:51:49.015Z,1.95
2023-03-04T13:54:29.118Z,1.94
2023-03-04T13:57:00.422Z,1.94
2023-03-04T13:59:50.497Z,1.97
2023-03-04T14:02:22.820Z,2.04
2023-03-04T14:04:53.706Z,2.11
2023-03-04T14:07:32.201Z,2.11
2023-03-04T14:10:11.979Z,2.06
2023-03-04T14:13:06.476Z,2.04
2023-03-04T14:15:35.426Z,2.03
2023-03-04T14:18:05.805Z,2.01
2023-03-04T14:20:36.964Z,2.04
2023-03-04T14:23:36.267Z,2.06
2023-03-04T14:26:15.766Z,2.08
2023-03-04T14:28:52.877Z,2.08
2023-03-04T14:31:24.246Z,2.05
2023-03-04T14:33:59.901Z,2.07
2023-03-04T14:36:35.872Z,2.03
2023-03-04T14:39:06.862Z,1.99
2023-03-04T14:41:39.437Z,1.96
2023-03-04T14:44:11.695Z,1.96
2023-03-04T14:46:56.881Z,1.97
2023-03-04T14:49:35.755Z,1.90
2023-03-04T14:52:05.066Z,1.87
2023-03-04T14:54:38.293Z,1.85
2023-03-04T14:57:26.522Z,1.84
2023-03-04T14:59:54.851Z,1.79
2023-03-04T15:02:33.789Z,1.75
2023-03-04T15:05:16.894Z,1.73
2023-03-04T15:07:51.962Z,1.72
2023-03-04T15:10:24.650Z,1.75
2023-03-04T15:12:55.524Z,1.81
2023-03-04T15:15:33.076Z,1.85
2023-03-04T15:18:26.473Z,1.85
2023-03-04T15:21:00.932Z,1.85
2023-03-04T15:23:31.495Z,1.89
2023-03-04T15:26:02.529Z,1.92
2023-03-04T15:28:36.509Z,1.98
2023-03-04T15:31:05.967Z,2.03
2023-03-04T15:33:34.307Z,2.09
2023-03-04T15:36:03.444Z,2.14
2023-03-04T15:38:31.777Z,2.19
2023-03-04T15:40:59.940Z,2.25
2023-03-04T15:43:28.022Z,2.30
2023-03-04T15:45:56.013Z,2.31
2023-03-04T15:48:24.076Z,2.30
2023-03-04T15:50:58.191Z,2.29
2023-03-04T15:53:32.870Z,2.24
2023-03-04T15:56:02.218Z,2.16
2023-03-04T15:58:34.884Z,2.05
2023-03-04T16:01:03.890Z,1.90
2023-03-04T16:03:32.359Z,1.79
2023-03-04T16:06:00.438Z,1.68
2023-03-04T16:08:29.065Z,1.60
2023-03-04T16:10:57.229Z,1.50
2023-03-04T16:13:25.290Z,1.46
2023-03-04T16:15:53.457Z,1.39
2023-03-04T16:18:21.581Z,1.27
2023-03-04T16:20:51.156Z,1.15
2023-03-04T16:23:23.257Z,1.10
2023-03-04T16:25:53.994Z,1.04
2023-03-04T16:28:22.396Z,0.95
2023-03-04T16:30:50.577Z,0.86
2023-03-04T16:33:18.645Z,0.83
2023-03-04T16:35:47.416Z,0.69
2023-03-04T16:38:33.245Z,0.62
2023-03-04T16:41:02.202Z,0.64
2023-03-04T16:43:30.381Z,0.56
2023-03-04T16:45:58.640Z,0.50
2023-03-04T16:48:26.669Z,0.42
2023-03-04T16:50:57.365Z,0.37
2023-03-04T16:53:28.043Z,0.30
2023-03-04T16:55:58.431Z,0.23
2023-03-04T16:58:26.458Z,0.12
2023-03-04T17:00:55.044Z,-0.01
2023-03-04T17:03:23.017Z,-0.06
2023-03-04T17:05:51.109Z,-0.17
2023-03-04T17:08:18.979Z,-0.27
2023-03-04T17:10:48.979Z,-0.25
2023-03-04T17:13:16.913Z,-0.30
2023-03-04T17:15:46.921Z,-0.32
2023-03-04T17:18:14.917Z,-0.40
2023-03-04T17:20:42.979Z,-0.48
2023-03-04T17:23:11.104Z,-0.50
2023-03-04T17:25:39.148Z,-0.59
2023-03-04T17:28:07.109Z,-0.57
2023-03-04T17:30:35.098Z,-0.62
2023-03-04T17:33:03.199Z,-0.64
2023-03-04T17:35:31.113Z,-0.66
2023-03-04T17:37:59.048Z,-0.72
2023-03-04T17:40:27.013Z,-0.73
2023-03-04T17:42:55.567Z,-0.76
2023-03-04T17:45:23.612Z,-0.81
2023-03-04T17:47:52.609Z,-0.80
2023-03-04T17:50:21.385Z,-0.85
2023-03-04T17:52:49.243Z,-0.86
2023-03-04T17:55:17.192Z,-0.83
2023-03-04T17:57:45.040Z,-0.84
2023-03-04T18:00:13.667Z,-0.85
2023-03-04T18:02:41.496Z,-0.90
2023-03-04T18:05:11.544Z,-0.88
2023-03-04T18:07:39.534Z,-0.92
2023-03-04T18:10:07.871Z,-0.94
2023-03-04T18:12:35.877Z,-0.96
2023-03-04T18:15:04.049Z,-0.97
2023-03-04T18:17:32.187Z,-0.96
2023-03-04T18:20:01.740Z,-0.98
2023-03-04T18:22:31.747Z,-1.04
2023-03-04T18:24:59.831Z,-1.00
2023-03-04T18:27:28.041Z,-1.03
2023-03-04T18:29:56.803Z,-1.07
2023-03-04T18:32:25.319Z,-1.07
2023-03-04T18:34:54.764Z,-1.10
2023-03-04T18:37:22.741Z,-1.15
2023-03-04T18:39:50.846Z,-1.20
2023-03-04T18:42:18.812Z,-1.23
2023-03-04T18:44:46.866Z,-1.25
2023-03-04T18:47:14.795Z,-1.29
2023-03-04T18:49:45.790Z,-1.29
2023-03-04T18:52:14.656Z,-1.33
2023-03-04T18:54:42.609Z,-1.34
2023-03-04T18:57:13.776Z,-1.33
2023-03-04T18:59:49.287Z,-1.35
2023-03-04T19:04:36.911Z,-1.39
2023-03-04T19:07:04.932Z,-1.40
2023-03-04T19:09:32.830Z,-1.43
2023-03-04T19:12:03.027Z,-1.45
2023-03-04T19:14:31.136Z,-1.47
2023-03-04T19:16:59.124Z,-1.50
2023-03-04T19:19:27.186Z,-1.53
2023-03-04T19:21:55.347Z,-1.55
2023-03-04T19:24:24.323Z,-1.56
2023-03-04T19:26:53.269Z,-1.59
2023-03-04T19:29:21.260Z,-1.62
2023-03-04T19:31:49.372Z,-1.65
2023-03-04T19:34:18.480Z,-1.68
2023-03-04T19:36:46.440Z,-1.71
2023-03-04T19:39:15.747Z,-1.72
2023-03-04T19:41:44.238Z,-1.76
2023-03-04T19:44:12.249Z,-1.79
2023-03-04T19:46:40.542Z,-1.81
2023-03-04T19:49:10.252Z,-1.84
2023-03-04T19:51:38.418Z,-1.86
2023-03-04T19:54:06.449Z,-1.89
2023-03-04T19:56:34.387Z,-1.90
2023-03-04T19:59:02.590Z,-1.94
2023-03-04T20:01:33.482Z,-1.99
2023-03-04T20:04:06.324Z,-2.02
2023-03-04T20:06:40.225Z,-2.08
2023-03-04T20:09:08.469Z,-2.13
2023-03-04T20:11:44.206Z,-2.20
2023-03-04T20:14:16.219Z,-2.27
2023-03-04T20:16:44.171Z,-2.33
2023-03-04T20:19:12.294Z,-2.39
2023-03-04T20:21:40.487Z,-2.44
2023-03-04T20:24:08.600Z,-2.52
2023-03-04T20:26:39.508Z,-2.57
2023-03-04T20:29:07.832Z,-2.64
2023-03-04T20:31:39.392Z,-2.72
2023-03-04T20:34:08.768Z,-2.82
2023-03-04T20:36:38.645Z,-2.89
2023-03-04T20:39:26.890Z,-2.95
2023-03-04T20:41:59.404Z,-3.02
2023-03-04T20:44:28.347Z,-3.09
2023-03-04T20:46:56.779Z,-3.15
2023-03-04T20:49:27.333Z,-3.21
2023-03-04T20:52:00.690Z,-3.26
2023-03-04T20:54:30.621Z,-3.31
2023-03-04T20:56:59.868Z,-3.35
2023-03-04T20:59:28.137Z,-3.39
2023-03-04T21:01:56.502Z,-3.43
2023-03-04T21:04:24.709Z,-3.47
2023-03-04T21:06:53.661Z,-3.50
2023-03-04T21:09:23.060Z,-3.53
2023-03-04T21:11:51.559Z,-3.55
2023-03-04T21:14:23.105Z,-3.59
2023-03-04T21:16:54.512Z,-3.63
2023-03-04T21:19:25.818Z,-3.67
2023-03-04T21:21:55.344Z,-3.73
2023-03-04T21:24:26.370Z,-3.77
2023-03-04T21:26:54.246Z,-3.80
2023-03-04T21:29:24.820Z,-3.79
2023-03-04T21:32:09.685Z,-3.81
2023-03-04T21:34:49.292Z,-3.84
2023-03-04T21:37:17.793Z,-3.87
2023-03-04T21:42:18.756Z,-3.92
2023-03-04T21:44:50.149Z,-3.96
2023-03-04T21:47:20.798Z,-4.01
2023-03-04T21:49:49.030Z,-4.08
2023-03-04T21:52:18.612Z,-4.12
2023-03-04T21:54:47.735Z,-4.14
2023-03-04T21:57:15.971Z,-4.16
2023-03-04T21:59:44.366Z,-4.18
2023-03-04T22:02:18.075Z,-4.21
2023-03-04T22:05:06.422Z,-4.23
2023-03-04T22:07:34.828Z,-4.27
2023-03-04T22:10:07.223Z,-4.31
2023-03-04T22:12:35.242Z,-4.35
2023-03-04T22:15:03.325Z,-4.38
2023-03-04T22:17:33.781Z,-4.42
2023-03-04T22:20:02.715Z,-4.46
2023-03-04T22:22:31.119Z,-4.49
2023-03-04T22:25:00.277Z,-4.53
2023-03-04T22:27:28.197Z,-4.54
2023-03-04T22:29:56.181Z,-4.54
2023-03-04T22:32:24.193Z,-4.58
2023-03-04T22:34:52.170Z,-4.58
2023-03-04T22:37:20.054Z,-4.59
2023-03-04T22:39:48.824Z,-4.62
2023-03-04T22:42:16.637Z,-4.64
2023-03-04T22:44:45.050Z,-4.66
2023-03-04T22:47:13.125Z,-4.70
2023-03-04T22:49:41.646Z,-4.71
2023-03-04T22:52:09.611Z,-4.74
2023-03-04T22:54:37.469Z,-4.77
2023-03-04T22:57:05.479Z,-4.80
2023-03-04T22:59:33.424Z,-4.82
2023-03-04T23:02:01.677Z,-4.86
2023-03-04T23:04:30.119Z,-4.92
2023-03-04T23:06:58.232Z,-4.98
2023-03-04T23:09:26.289Z,-5.03
2023-03-04T23:11:55.615Z,-5.07
2023-03-04T23:14:23.589Z,-5.10
2023-03-04T23:16:51.695Z,-5.11
2023-03-04T23:19:19.697Z,-5.14
2023-03-04T23:21:47.781Z,-5.17
2023-03-04T23:24:15.769Z,-5.17
2023-03-04T23:26:43.899Z,-5.14
2023-03-04T23:29:15.102Z,-5.12
2023-03-04T23:31:44.319Z,-5.13
2023-03-04T23:34:13.783Z,-5.17
2023-03-04T23:36:42.324Z,-5.18
2023-03-04T23:39:12.832Z,-5.18
2023-03-04T23:41:40.911Z,-5.18
2023-03-04T23:44:12.567Z,-5.17
2023-03-04T23:46:41.268Z,-5.15
2023-03-04T23:49:13.153Z,-5.17
2023-03-04T23:51:41.259Z,-5.19
2023-03-04T23:54:09.291Z,-5.20
2023-03-04T23:56:37.269Z,-5.20
2023-03-04T23:59:07.676Z,-5.18
